Dades meteomassalio
Diari Summary for Febrer 25, 2017 Units:  English    Metric   Both
« Previous Day
Next Day »
Diari Semanal Mensual Anual Personalitzat
  Maxima: Minima: Mijana:
Temperatura: TemperatureC °F 1.5 °F 8.6 °F
Rosada: DewpointC °F -1.3 °F 1.3 °F
Humitat: Humidity % 30 % 63 %
Velocitat del vent: WindSpeedKMH mph 0.0 mph 4.5 mph
Racha vent: WindSpeedGustKMH mph - -
Vent:- - SW
Pressio: PressurehPa in 1018.5 in -
Pluja: 0.0 in    
Historical Graphs
 
 
Tabular Data for Febrer 25, 2017
Time Temperature Dew Point Pressure Wind Wind Speed Wind Gust Humidity Rainfall Rate (Hourly) solar Conditions
TemperatureC °F DewpointC °F PressurehPa in Calm     Humidity % HourlyPrecipMM in SolarRadiationWatts/m^2 W/m2 Conditions
00:00 7.2 °F 0.8 °F 1020.2 in WSW 22.2 mph 22.2 mph 64 % 0.0 in 0.0 W/m2 RA
00:05 7.2 °F 1.1 °F 1020.2 in West 24.1 mph 24.1 mph 65 % 0.0 in 0.0 W/m2 CLR
00:10 7.1 °F 1.2 °F 1020.2 in WSW 19.3 mph 19.3 mph 66 % 0.0 in 0.0 W/m2 CLR
00:15 7.0 °F 1.3 °F 1020.5 in West 14.8 mph 14.8 mph 67 % 0.0 in 0.0 W/m2 CLR
00:20 6.9 °F 1.2 °F 1020.2 in WSW 19.3 mph 19.3 mph 67 % 0.0 in 0.0 W/m2 CLR
00:25 6.9 °F 1.4 °F 1020.2 in West 24.1 mph 24.1 mph 68 % 0.0 in 0.0 W/m2 CLR
00:30 6.9 °F 1.4 °F 1020.5 in WSW 18.5 mph 18.5 mph 68 % 0.0 in 0.0 W/m2 CLR
00:35 6.8 °F 1.3 °F 1020.5 in WSW 12.9 mph 12.9 mph 68 % 0.0 in 0.0 W/m2 CLR
00:40 6.7 °F 1.4 °F 1020.5 in WSW 7.4 mph 7.4 mph 69 % 0.0 in 0.0 W/m2 CLR
00:45 6.6 °F 1.5 °F 1020.5 in WSW 20.4 mph 20.4 mph 70 % 0.0 in 0.0 W/m2 CLR
00:50 6.6 °F 1.5 °F 1020.5 in WSW 22.2 mph 22.2 mph 70 % 0.0 in 0.0 W/m2 CLR
00:55 6.6 °F 1.4 °F 1020.5 in SW 9.3 mph 9.3 mph 70 % 0.0 in 0.0 W/m2 CLR
01:00 6.5 °F 1.6 °F 1020.9 in West 6.4 mph 6.4 mph 71 % 0.0 in 0.0 W/m2 CLR
01:05 6.4 °F 1.5 °F 1020.9 in SW 9.3 mph 9.5 mph 71 % 0.0 in 0.0 W/m2 CLR
01:10 6.4 °F 1.7 °F 1020.9 in WSW 18.5 mph 18.5 mph 72 % 0.0 in 0.0 W/m2 CLR
01:11 6.4 °F 1.8 °F 1020.9 in WSW 18.5 mph 18.5 mph 72 % 0.0 in 0.0 W/m2 CLR
01:16 6.4 °F 1.7 °F 1020.9 in WSW 18.5 mph 18.5 mph 72 % 0.0 in 0.0 W/m2 CLR
01:21 6.3 °F 1.7 °F 1020.9 in SW 9.3 mph 9.3 mph 72 % 0.0 in 0.0 W/m2 CLR
01:26 6.2 °F 1.6 °F 1020.9 in WSW 5.6 mph 5.6 mph 72 % 0.0 in 0.0 W/m2 CLR
01:31 6.1 °F 1.6 °F 1020.9 in WSW 13.0 mph 13.0 mph 73 % 0.0 in 0.0 W/m2 CLR
01:36 6.1 °F 1.6 °F 1020.5 in WSW 11.1 mph 11.1 mph 73 % 0.0 in 0.0 W/m2 CLR
01:41 5.9 °F 1.4 °F 1020.5 in WSW 7.4 mph 7.4 mph 73 % 0.0 in 0.0 W/m2 CLR
01:46 5.9 °F 1.6 °F 1020.5 in WSW 11.1 mph 11.1 mph 74 % 0.0 in 0.0 W/m2 CLR
01:51 5.8 °F 1.5 °F 1020.5 in SW 11.1 mph 11.1 mph 74 % 0.0 in 0.0 W/m2 CLR
01:56 5.7 °F 1.6 °F 1020.5 in WSW 8.0 mph 8.0 mph 75 % 0.0 in 0.0 W/m2 CLR
02:01 5.7 °F 1.6 °F 1020.5 in WSW 13.0 mph 13.0 mph 75 % 0.0 in 0.0 W/m2 CLR
02:06 5.8 °F 1.7 °F 1020.5 in SW 14.8 mph 14.8 mph 75 % 0.0 in 0.0 W/m2 CLR
02:12 5.8 °F 1.7 °F 1020.5 in WSW 9.3 mph 9.3 mph 75 % 0.0 in 0.0 W/m2 CLR
02:17 5.8 °F 1.7 °F 1020.5 in WNW 16.7 mph 16.7 mph 75 % 0.0 in 0.0 W/m2 CLR
02:22 6.0 °F 1.9 °F 1020.5 in WSW 18.5 mph 18.5 mph 75 % 0.0 in 0.0 W/m2 CLR
02:27 6.2 °F 2.1 °F 1020.5 in WNW 22.2 mph 22.2 mph 75 % 0.0 in 0.0 W/m2 CLR
02:32 6.2 °F 2.1 °F 1020.5 in West 13.0 mph 13.0 mph 75 % 0.0 in 0.0 W/m2 CLR
02:37 6.1 °F 1.9 °F 1020.9 in WSW 18.5 mph 18.5 mph 75 % 0.0 in 0.0 W/m2 CLR
02:42 6.0 °F 1.9 °F 1020.9 in WSW 14.8 mph 14.8 mph 75 % 0.0 in 0.0 W/m2 CLR
02:47 5.9 °F 1.8 °F 1020.5 in Calm     75 % 0.0 in 0.0 W/m2 CLR
02:52 5.7 °F 1.8 °F 1020.5 in WSW 16.7 mph 16.7 mph 76 % 0.0 in 0.0 W/m2 CLR
02:57 5.6 °F 1.7 °F 1020.5 in Calm     76 % 0.0 in 0.0 W/m2 CLR
03:02 5.4 °F 1.7 °F 1020.5 in SW 3.2 mph 3.2 mph 77 % 0.0 in 0.0 W/m2 CLR
03:07 5.3 °F 1.8 °F 1020.5 in SW 3.7 mph   78 % 0.0 in 0.0 W/m2 CLR
03:12 5.1 °F 1.6 °F 1020.5 in Calm     78 % 0.0 in 0.0 W/m2 CLR
03:17 5.1 °F 1.8 °F 1020.5 in SW 5.6 mph 5.6 mph 79 % 0.0 in 0.0 W/m2 CLR
03:22 5.0 °F 1.5 °F 1020.5 in SW 5.6 mph 5.6 mph 78 % 0.0 in 0.0 W/m2 CLR
03:27 4.9 °F 1.6 °F 1020.5 in SW 5.6 mph 5.6 mph 79 % 0.0 in 0.0 W/m2 CLR
03:32 4.8 °F 1.5 °F 1020.5 in WSW 5.6 mph 5.6 mph 79 % 0.0 in 0.0 W/m2 CLR
03:37 4.8 °F 1.7 °F 1020.5 in Calm     80 % 0.0 in 0.0 W/m2 CLR
03:42 4.8 °F 1.7 °F 1020.5 in WSW 9.3 mph 9.3 mph 80 % 0.0 in 0.0 W/m2 CLR
03:47 4.9 °F 1.6 °F 1020.5 in WSW 11.1 mph 11.1 mph 79 % 0.0 in 0.0 W/m2 CLR
03:52 4.9 °F 1.6 °F 1020.5 in WSW 5.6 mph 5.6 mph 79 % 0.0 in 0.0 W/m2 CLR
03:57 4.9 °F 1.6 °F 1020.5 in SW 3.7 mph 3.7 mph 79 % 0.0 in 0.0 W/m2 CLR
04:02 4.7 °F 1.4 °F 1020.5 in SW 1.6 mph   79 % 0.0 in 0.0 W/m2 CLR
04:07 4.5 °F 1.3 °F 1020.5 in SW 1.9 mph   80 % 0.0 in 0.0 W/m2 CLR
04:12 4.3 °F 1.3 °F 1020.2 in SW 7.4 mph 7.4 mph 81 % 0.0 in 0.0 W/m2 CLR
04:17 4.2 °F 1.2 °F 1020.5 in WSW 7.4 mph 7.4 mph 81 % 0.0 in 0.0 W/m2 CLR
04:22 4.4 °F 1.4 °F 1020.2 in West 14.8 mph 14.8 mph 81 % 0.0 in 0.0 W/m2 CLR
04:27 4.6 °F 1.4 °F 1020.2 in WSW 5.6 mph 5.6 mph 80 % 0.0 in 0.0 W/m2 CLR
04:32 4.8 °F 1.6 °F 1020.2 in WSW 9.7 mph 9.7 mph 80 % 0.0 in 0.0 W/m2 CLR
04:37 4.9 °F 1.6 °F 1020.2 in West 13.0 mph 13.0 mph 79 % 0.0 in 0.0 W/m2 CLR
04:42 5.1 °F 1.6 °F 1020.2 in West 5.6 mph 5.6 mph 78 % 0.0 in 0.0 W/m2 CLR
04:47 5.1 °F 1.3 °F 1020.2 in Calm     77 % 0.0 in 0.0 W/m2 CLR
04:52 4.8 °F 1.3 °F 1020.5 in Calm     78 % 0.0 in 0.0 W/m2 CLR
04:57 4.5 °F 1.0 °F 1020.5 in Calm     78 % 0.0 in 0.0 W/m2 CLR
05:02 4.3 °F 0.9 °F 1020.5 in Calm     79 % 0.0 in 0.0 W/m2 CLR
05:07 4.1 °F 0.9 °F 1020.5 in Calm     80 % 0.0 in 0.0 W/m2 CLR
05:12 4.1 °F 1.1 °F 1020.5 in Calm     81 % 0.0 in 0.0 W/m2 CLR
05:13 4.1 °F 1.1 °F 1020.5 in Calm     81 % 0.0 in 0.0 W/m2 CLR
05:18 4.1 °F 0.9 °F 1020.5 in Calm     80 % 0.0 in 0.0 W/m2 CLR
05:23 4.1 °F 0.9 °F 1020.5 in Calm     80 % 0.0 in 0.0 W/m2 CLR
05:28 4.0 °F 0.8 °F 1020.5 in Calm     80 % 0.0 in 0.0 W/m2 CLR
05:33 4.1 °F 0.9 °F 1020.5 in WSW 5.6 mph 5.6 mph 80 % 0.0 in 0.0 W/m2 CLR
05:38 4.1 °F 0.9 °F 1020.5 in WSW 5.6 mph 5.6 mph 80 % 0.0 in 0.0 W/m2 CLR
05:43 4.1 °F 0.7 °F 1020.5 in WSW 5.6 mph 5.6 mph 79 % 0.0 in 0.0 W/m2 CLR
05:48 3.8 °F 0.7 °F 1020.5 in SW 5.6 mph 5.6 mph 80 % 0.0 in 0.0 W/m2 CLR
05:53 3.7 °F 0.6 °F 1020.5 in SW 5.6 mph 5.6 mph 80 % 0.0 in 0.0 W/m2 CLR
05:58 3.6 °F 0.4 °F 1020.5 in SW 1.9 mph   80 % 0.0 in 0.0 W/m2 CLR
06:03 3.3 °F 0.2 °F 1020.5 in Calm     80 % 0.0 in 0.0 W/m2 CLR
06:08 3.1 °F 0.3 °F 1020.5 in SW 6.4 mph 6.4 mph 82 % 0.0 in 0.0 W/m2 CLR
06:13 3.0 °F 0.4 °F 1020.5 in SW 7.4 mph 7.4 mph 83 % 0.0 in 0.0 W/m2 CLR
06:18 3.1 °F 0.3 °F 1020.5 in WSW 5.6 mph 5.6 mph 82 % 0.0 in 0.0 W/m2 CLR
06:23 3.1 °F 0.3 °F 1020.5 in WSW 5.6 mph 5.6 mph 82 % 0.0 in 0.0 W/m2 CLR
06:28 3.3 °F 0.5 °F 1020.9 in WSW 5.6 mph 5.6 mph 82 % 0.0 in 0.0 W/m2 CLR
06:33 3.6 °F 0.7 °F 1020.9 in WSW 5.6 mph 5.6 mph 81 % 0.0 in 0.0 W/m2 CLR
06:38 3.7 °F 0.6 °F 1020.9 in WSW 5.6 mph 5.6 mph 80 % 0.0 in 0.0 W/m2 CLR
06:43 3.8 °F 0.4 °F 1020.9 in WSW 5.6 mph 5.6 mph 79 % 0.0 in 0.0 W/m2 CLR
06:48 3.9 °F 0.4 °F 1020.9 in WSW 5.6 mph 5.6 mph 78 % 0.0 in 0.0 W/m2 CLR
06:53 3.6 °F 0.1 °F 1020.9 in Calm     78 % 0.0 in 0.0 W/m2 CLR
06:58 3.0 °F -0.3 °F 1020.9 in SW 5.6 mph 5.6 mph 79 % 0.0 in 0.0 W/m2 CLR
07:03 2.6 °F -0.3 °F 1020.9 in SW 5.6 mph 5.6 mph 81 % 0.0 in 0.0 W/m2 CLR
07:08 2.3 °F -0.4 °F 1020.9 in Calm     82 % 0.0 in 0.0 W/m2 CLR
07:13 2.4 °F -0.2 °F 1020.9 in West 7.4 mph 7.4 mph 83 % 0.0 in 0.0 W/m2 CLR
07:18 2.9 °F 0.3 °F 1020.9 in West 5.6 mph 5.6 mph 83 % 0.0 in 0.0 W/m2 CLR
07:23 2.9 °F -0.2 °F 1020.9 in Calm     80 % 0.0 in 0.0 W/m2 CLR
07:29 2.6 °F -0.4 °F 1020.9 in Calm     81 % 0.0 in 0.0 W/m2 CLR
07:34 2.2 °F -0.6 °F 1020.9 in Calm     82 % 0.0 in 0.0 W/m2 OVC
07:39 2.0 °F -0.6 °F 1021.2 in Calm     83 % 0.0 in 5.0 W/m2 OVC
07:44 1.8 °F -0.8 °F 1021.2 in Calm     83 % 0.0 in 7.0 W/m2 OVC
07:49 1.6 °F -0.8 °F 1021.2 in Calm     84 % 0.0 in 11.0 W/m2 BKN
07:54 1.5 °F -0.7 °F 1021.2 in Calm     85 % 0.0 in 14.0 W/m2 BKN
07:59 1.5 °F -0.6 °F 1021.2 in Calm     86 % 0.0 in 18.0 W/m2 BKN
08:04 1.6 °F -0.6 °F 1021.6 in Calm     86 % 0.0 in 21.0 W/m2 BKN
08:09 1.7 °F -0.4 °F 1021.6 in Calm     86 % 0.0 in 25.0 W/m2 BKN
08:14 1.9 °F -0.2 °F 1021.6 in Calm     86 % 0.0 in 32.0 W/m2 BKN
08:19 2.1 °F 0.0 °F 1021.6 in Calm     86 % 0.0 in 46.0 W/m2 BKN
08:24 2.3 °F 0.0 °F 1021.6 in Calm     85 % 0.0 in 56.0 W/m2 SCT
08:29 2.6 °F 0.3 °F 1021.6 in Calm     85 % 0.0 in 54.0 W/m2 SCT
08:34 2.7 °F 0.3 °F 1021.6 in Calm     84 % 0.0 in 53.0 W/m2 SCT
08:39 2.8 °F 0.4 °F 1021.6 in Calm     84 % 0.0 in 63.0 W/m2 SCT
08:44 2.9 °F 0.4 °F 1021.6 in Calm     84 % 0.0 in 104.0 W/m2 FEW
08:49 3.1 °F 0.5 °F 1021.9 in Calm     83 % 0.0 in 113.0 W/m2 CLR
08:54 3.4 °F 0.8 °F 1021.6 in Calm     83 % 0.0 in 93.0 W/m2 CLR
08:59 3.8 °F 0.9 °F 1021.6 in WSW 5.6 mph 5.6 mph 81 % 0.0 in 79.0 W/m2 CLR
09:04 4.2 °F 1.1 °F 1021.6 in Calm     80 % 0.0 in 186.0 W/m2 CLR
09:09 4.3 °F 1.2 °F 1021.6 in Calm     80 % 0.0 in 156.0 W/m2 CLR
09:14 4.7 °F 1.3 °F 1021.6 in Calm     79 % 0.0 in 153.0 W/m2 CLR
09:19 5.2 °F 1.7 °F 1021.9 in Calm     78 % 0.0 in 167.0 W/m2 CLR
09:24 5.5 °F 1.8 °F 1021.9 in Calm     77 % 0.0 in 156.0 W/m2 CLR
09:29 5.8 °F 2.1 °F 1021.9 in Calm     77 % 0.0 in 135.0 W/m2 CLR
09:34 6.1 °F 2.2 °F 1021.9 in Calm     76 % 0.0 in 200.0 W/m2 CLR
09:39 6.3 °F 2.2 °F 1021.9 in Calm     75 % 0.0 in 163.0 W/m2 CLR
09:44 6.6 °F 2.1 °F 1021.9 in Calm     73 % 0.0 in 148.0 W/m2 CLR
09:49 6.9 °F 2.0 °F 1021.9 in Calm     71 % 0.0 in 197.0 W/m2 CLR
09:54 7.2 °F 2.1 °F 1021.9 in Calm     70 % 0.0 in 197.0 W/m2 CLR
09:59 7.5 °F 2.2 °F 1021.9 in Calm     69 % 0.0 in 271.0 W/m2 CLR
10:04 7.8 °F 1.9 °F 1021.9 in Calm     66 % 0.0 in 241.0 W/m2 CLR
10:09 8.1 °F 1.4 °F 1021.9 in Calm     63 % 0.0 in 306.0 W/m2 CLR
10:14 8.4 °F 1.3 °F 1021.9 in SW 3.7 mph 3.7 mph 61 % 0.0 in 288.0 W/m2 CLR
10:19 8.7 °F 1.1 °F 1021.9 in West 3.2 mph 3.2 mph 59 % 0.0 in 367.0 W/m2 CLR
10:24 8.8 °F 1.0 °F 1021.9 in NW 22.2 mph 22.2 mph 58 % 0.0 in 243.0 W/m2 CLR
10:29 8.8 °F 0.9 °F 1021.9 in West 5.6 mph 5.6 mph 58 % 0.0 in 348.0 W/m2 CLR
10:34 8.9 °F 1.1 °F 1021.9 in WNW 5.6 mph 5.6 mph 58 % 0.0 in 341.0 W/m2 CLR
10:39 9.1 °F 1.0 °F 1021.9 in WNW 9.3 mph 9.3 mph 57 % 0.0 in 411.0 W/m2 CLR
10:44 9.3 °F 0.4 °F 1021.9 in WNW 9.3 mph 9.3 mph 54 % 0.0 in 341.0 W/m2 CLR
10:49 9.4 °F 0.3 °F 1021.9 in West 13.0 mph 13.0 mph 53 % 0.0 in 420.0 W/m2 CLR
10:54 9.7 °F 1.3 °F 1021.6 in WSW 7.4 mph 7.4 mph 56 % 0.0 in 425.0 W/m2 CLR
10:59 10.0 °F 1.1 °F 1021.9 in WNW 11.3 mph 11.3 mph 54 % 0.0 in 471.0 W/m2 CLR
11:04 10.1 °F 0.4 °F 1021.9 in West 9.3 mph 9.3 mph 51 % 0.0 in 501.0 W/m2 CLR
11:09 10.2 °F 0.2 °F 1021.6 in West 9.3 mph 9.3 mph 50 % 0.0 in 520.0 W/m2 CLR
11:10 10.2 °F 0.2 °F 1021.6 in NW 9.3 mph 9.3 mph 50 % 0.0 in 508.0 W/m2 CLR
11:15 10.4 °F 0.7 °F 1021.6 in WSW 9.3 mph 9.3 mph 51 % 0.0 in 547.0 W/m2 CLR
11:20 10.5 °F 0.2 °F 1021.6 in SW 8.0 mph 8.0 mph 49 % 0.0 in 504.0 W/m2 CLR
11:25 10.8 °F 0.8 °F 1021.6 in WNW 20.4 mph 20.4 mph 50 % 0.0 in 563.0 W/m2 CLR
11:30 11.0 °F 0.7 °F 1021.6 in NW 5.6 mph 5.6 mph 49 % 0.0 in 540.0 W/m2 CLR
11:35 11.1 °F 0.2 °F 1021.6 in West 7.4 mph 7.4 mph 47 % 0.0 in 568.0 W/m2 CLR
11:40 11.1 °F 0.8 °F 1021.6 in West 1.9 mph 1.9 mph 49 % 0.0 in 575.0 W/m2 CLR
11:45 11.4 °F 0.8 °F 1021.2 in SW 3.7 mph 3.7 mph 48 % 0.0 in 580.0 W/m2 CLR
11:50 11.6 °F 0.7 °F 1021.2 in West 11.1 mph 11.1 mph 47 % 0.0 in 589.0 W/m2 CLR
11:55 11.7 °F 0.7 °F 1021.2 in NNW 6.4 mph 6.4 mph 47 % 0.0 in 594.0 W/m2 CLR
12:00 11.7 °F 0.2 °F 1021.2 in NNW 9.3 mph 9.3 mph 45 % 0.0 in 601.0 W/m2 CLR
12:05 11.8 °F 0.5 °F 1021.2 in NNW 7.4 mph 7.4 mph 46 % 0.0 in 606.0 W/m2 CLR
12:10 11.9 °F 0.3 °F 1021.2 in Calm     45 % 0.0 in 612.0 W/m2 CLR
12:15 12.2 °F 0.6 °F 1021.2 in SW 7.4 mph 7.4 mph 45 % 0.0 in 619.0 W/m2 CLR
12:20 12.4 °F 0.8 °F 1021.2 in WSW 11.1 mph 11.1 mph 45 % 0.0 in 622.0 W/m2 CLR
12:25 12.5 °F 0.2 °F 1021.2 in NNW 7.4 mph 7.4 mph 43 % 0.0 in 628.0 W/m2 CLR
12:30 12.5 °F 0.2 °F 1020.9 in WNW 9.3 mph 9.3 mph 43 % 0.0 in 631.0 W/m2 CLR
12:35 12.7 °F 0.4 °F 1020.9 in WNW 8.0 mph 8.5 mph 43 % 0.0 in 636.0 W/m2 CLR
12:40 12.8 °F 0.2 °F 1020.9 in West 7.4 mph   42 % 0.0 in 638.0 W/m2 CLR
12:45 13.1 °F 0.1 °F 1020.5 in NW 6.4 mph 6.4 mph 41 % 0.0 in 635.0 W/m2 CLR
12:50 13.2 °F 0.6 °F 1020.5 in NW 7.4 mph 7.4 mph 42 % 0.0 in 633.0 W/m2 CLR
12:55 13.2 °F 0.8 °F 1020.5 in NW 11.3 mph 11.3 mph 43 % 0.0 in 649.0 W/m2 CLR
13:00 13.2 °F 0.6 °F 1020.5 in NNW 7.4 mph 7.4 mph 42 % 0.0 in 649.0 W/m2 CLR
13:05 13.4 °F 0.4 °F 1020.5 in NW 11.1 mph 11.1 mph 41 % 0.0 in 649.0 W/m2 CLR
13:10 13.6 °F 0.9 °F 1020.5 in NNW 7.4 mph 7.4 mph 42 % 0.0 in 647.0 W/m2 CLR
13:15 13.7 °F 0.3 °F 1020.2 in WSW 18.5 mph 18.5 mph 40 % 0.0 in 649.0 W/m2 CLR
13:20 13.7 °F -0.4 °F 1020.2 in Calm     38 % 0.0 in 649.0 W/m2 CLR
13:25 13.9 °F 0.6 °F 1020.2 in NW 8.0 mph 8.0 mph 40 % 0.0 in 649.0 W/m2 CLR
13:30 13.9 °F 0.6 °F 1020.2 in NW 9.7 mph 9.7 mph 40 % 0.0 in 649.0 W/m2 CLR
13:35 13.9 °F 0.6 °F 1020.2 in NW 18.5 mph 18.5 mph 40 % 0.0 in 645.0 W/m2 CLR
13:40 14.0 °F -0.1 °F 1020.2 in North 5.6 mph 5.6 mph 38 % 0.0 in 642.0 W/m2 CLR
13:45 14.1 °F 0.7 °F 1019.9 in NW 16.7 mph 16.7 mph 40 % 0.0 in 640.0 W/m2 CLR
13:50 14.3 °F 0.8 °F 1019.9 in NNW 9.3 mph 9.3 mph 40 % 0.0 in 640.0 W/m2 CLR
13:55 14.2 °F 0.1 °F 1019.9 in NNW 6.4 mph 6.4 mph 38 % 0.0 in 636.0 W/m2 CLR
14:00 14.3 °F 0.1 °F 1019.9 in North 1.9 mph 1.9 mph 38 % 0.0 in 635.0 W/m2 CLR
14:05 14.4 °F 0.7 °F 1019.9 in Calm     39 % 0.0 in 629.0 W/m2 CLR
14:10 14.7 °F 1.2 °F 1019.9 in Calm     40 % 0.0 in 626.0 W/m2 CLR
14:15 15.0 °F 0.1 °F 1019.9 in SW 1.9 mph 1.9 mph 36 % 0.0 in 621.0 W/m2 CLR
14:20 15.1 °F 0.5 °F 1019.5 in Calm     37 % 0.0 in 615.0 W/m2 CLR
14:25 15.3 °F -0.1 °F 1019.5 in Calm     35 % 0.0 in 608.0 W/m2 CLR
14:30 15.4 °F 0.4 °F 1019.5 in Calm     36 % 0.0 in 605.0 W/m2 CLR
14:35 15.6 °F -0.3 °F 1019.5 in Calm     34 % 0.0 in 601.0 W/m2 CLR
14:40 15.4 °F 0.0 °F 1019.5 in Calm     35 % 0.0 in 592.0 W/m2 CLR
14:45 15.4 °F 0.1 °F 1019.5 in Calm     35 % 0.0 in 584.0 W/m2 CLR
14:50 15.7 °F 0.2 °F 1019.2 in Calm     35 % 0.0 in 578.0 W/m2 CLR
14:55 15.8 °F -0.1 °F 1019.2 in Calm     34 % 0.0 in 573.0 W/m2 CLR
15:00 15.6 °F -0.2 °F 1019.2 in ENE 5.6 mph 5.6 mph 34 % 0.0 in 564.0 W/m2 CLR
15:05 15.4 °F -0.4 °F 1019.2 in ESE 3.7 mph 3.7 mph 34 % 0.0 in 555.0 W/m2 CLR
15:10 15.4 °F -0.4 °F 1019.2 in Calm     34 % 0.0 in 547.0 W/m2 CLR
15:15 15.7 °F -0.6 °F 1019.2 in ENE 3.7 mph 3.7 mph 33 % 0.0 in 540.0 W/m2 CLR
15:20 15.8 °F 0.0 °F 1019.2 in Calm   0.2 mph 34 % 0.0 in 527.0 W/m2 CLR
15:25 15.8 °F -0.5 °F 1019.2 in Calm     33 % 0.0 in 520.0 W/m2 CLR
15:30 15.9 °F -0.3 °F 1018.8 in Calm     33 % 0.0 in 506.0 W/m2 CLR
15:35 16.3 °F 0.4 °F 1018.8 in NE 5.6 mph 5.6 mph 34 % 0.0 in 496.0 W/m2 CLR
15:40 16.3 °F -0.4 °F 1018.8 in Calm     32 % 0.0 in 482.0 W/m2 CLR
15:45 16.4 °F -0.4 °F 1018.8 in Calm     32 % 0.0 in 478.0 W/m2 CLR
15:50 16.8 °F -0.4 °F 1018.8 in ENE 3.2 mph 3.2 mph 31 % 0.0 in 464.0 W/m2 CLR
15:55 16.7 °F -0.6 °F 1018.8 in Calm     31 % 0.0 in 452.0 W/m2 CLR
16:00 16.7 °F -1.0 °F 1018.8 in Calm     30 % 0.0 in 441.0 W/m2 CLR
16:05 16.8 °F -0.4 °F 1018.8 in Calm     31 % 0.0 in 429.0 W/m2 CLR
16:10 16.9 °F -0.3 °F 1018.8 in Calm     31 % 0.0 in 415.0 W/m2 CLR
16:15 16.9 °F -0.3 °F 1018.8 in Calm     31 % 0.0 in 404.0 W/m2 CLR
16:20 16.9 °F -0.8 °F 1018.8 in Calm     30 % 0.0 in 392.0 W/m2 CLR
16:25 16.8 °F -0.9 °F 1018.8 in Calm     30 % 0.0 in 381.0 W/m2 CLR
16:30 16.7 °F -0.6 °F 1018.8 in ESE 3.7 mph 3.7 mph 31 % 0.0 in 350.0 W/m2 CLR
16:35 16.6 °F -0.7 °F 1018.8 in Calm     31 % 0.0 in 308.0 W/m2 CLR
16:40 16.6 °F -0.7 °F 1018.8 in Calm     31 % 0.0 in 306.0 W/m2 CLR
16:45 16.4 °F -1.2 °F 1018.8 in ESE 5.6 mph 5.6 mph 30 % 0.0 in 301.0 W/m2 CLR
16:50 16.2 °F -0.9 °F 1018.8 in Calm     31 % 0.0 in 308.0 W/m2 CLR
16:55 16.3 °F -0.8 °F 1018.5 in Calm     31 % 0.0 in 301.0 W/m2 CLR
17:00 16.6 °F -0.7 °F 1018.5 in Calm     31 % 0.0 in 288.0 W/m2 CLR
17:05 16.6 °F -1.1 °F 1018.5 in Calm     30 % 0.0 in 214.0 W/m2 CLR
17:10 16.4 °F -1.3 °F 1018.5 in Calm     30 % 0.0 in 207.0 W/m2 CLR
17:15 16.4 °F -1.3 °F 1018.5 in Calm     30 % 0.0 in 165.0 W/m2 CLR
17:20 16.4 °F 0.9 °F 1018.5 in NE 3.2 mph 3.2 mph 35 % 0.0 in 186.0 W/m2 CLR
17:25 16.2 °F 0.7 °F 1018.8 in NNE 6.4 mph 6.4 mph 35 % 0.0 in 192.0 W/m2 CLR
17:30 16.1 °F 0.6 °F 1018.8 in NE 5.6 mph 5.6 mph 35 % 0.0 in 163.0 W/m2 CLR
17:35 15.9 °F 0.8 °F 1018.8 in NE 7.4 mph 7.4 mph 36 % 0.0 in 139.0 W/m2 CLR
17:40 15.7 °F 0.7 °F 1018.8 in NE 5.6 mph 5.6 mph 36 % 0.0 in 113.0 W/m2 CLR
17:45 15.7 °F 0.6 °F 1018.8 in Calm     36 % 0.0 in 130.0 W/m2 CLR
17:51 15.7 °F 0.6 °F 1018.8 in Calm     36 % 0.0 in 109.0 W/m2 CLR
17:56 15.7 °F 0.3 °F 1018.8 in Calm     35 % 0.0 in 105.0 W/m2 CLR
18:01 15.7 °F 0.3 °F 1018.8 in ENE 3.7 mph 3.7 mph 35 % 0.0 in 74.0 W/m2 CLR
18:06 15.7 °F 0.2 °F 1019.2 in Calm     35 % 0.0 in 53.0 W/m2 SCT
18:10 15.4 °F 1.8 °F 1019.2 in ESE 5.6 mph 5.6 mph 40 % 0.0 in 58.0 W/m2 SCT
18:15 15.1 °F 3.9 °F 1019.2 in East 7.4 mph 7.4 mph 47 % 0.0 in 46.0 W/m2 SCT
18:21 14.7 °F 4.1 °F 1019.2 in ESE 5.6 mph 5.6 mph 49 % 0.0 in 30.0 W/m2 BKN
18:26 14.2 °F 3.9 °F 1019.2 in ESE 7.4 mph 7.4 mph 50 % 0.0 in 21.0 W/m2 BKN
18:31 13.9 °F 4.2 °F 1019.2 in SE 5.6 mph 5.6 mph 52 % 0.0 in 18.0 W/m2 BKN
18:36 13.6 °F 4.2 °F 1019.2 in SE 6.4 mph 6.4 mph 53 % 0.0 in 14.0 W/m2 BKN
18:41 13.3 °F 4.2 °F 1019.5 in SE 5.6 mph 5.6 mph 54 % 0.0 in 9.0 W/m2 BKN
18:46 13.1 °F 4.2 °F 1019.5 in SE 7.4 mph 7.4 mph 55 % 0.0 in 5.0 W/m2 BKN
18:51 12.8 °F 4.2 °F 1019.5 in ESE 5.6 mph 5.6 mph 56 % 0.0 in 0.0 W/m2 OVC
18:56 12.6 °F 4.3 °F 1019.5 in ESE 5.6 mph 5.6 mph 57 % 0.0 in 0.0 W/m2 OVC
19:01 12.4 °F 4.3 °F 1019.5 in SE 5.6 mph 5.6 mph 58 % 0.0 in 0.0 W/m2 CLR
19:06 12.2 °F 4.4 °F 1019.9 in ESE 5.6 mph 5.6 mph 59 % 0.0 in 0.0 W/m2 CLR
19:11 12.0 °F 4.4 °F 1019.9 in ESE 8.0 mph 8.0 mph 60 % 0.0 in 0.0 W/m2 CLR
19:16 11.9 °F 4.4 °F 1019.9 in ESE 7.4 mph 7.4 mph 60 % 0.0 in 0.0 W/m2 CLR
19:21 11.8 °F 4.3 °F 1019.9 in Calm     60 % 0.0 in 0.0 W/m2 CLR
19:26 11.6 °F 4.3 °F 1019.9 in Calm     61 % 0.0 in 0.0 W/m2 CLR
19:31 11.4 °F 4.2 °F 1019.9 in Calm     61 % 0.0 in 0.0 W/m2 CLR
19:36 11.3 °F 4.3 °F 1019.9 in Calm     62 % 0.0 in 0.0 W/m2 CLR
19:41 11.1 °F 4.3 °F 1019.9 in Calm     63 % 0.0 in 0.0 W/m2 CLR
19:46 11.0 °F 4.2 °F 1019.9 in ESE 4.8 mph 4.8 mph 63 % 0.0 in 0.0 W/m2 CLR
19:51 10.8 °F 4.1 °F 1019.9 in Calm     63 % 0.0 in 0.0 W/m2 CLR
19:56 10.7 °F 4.1 °F 1020.2 in Calm     64 % 0.0 in 0.0 W/m2 CLR
20:01 10.6 °F 4.2 °F 1020.2 in Calm     65 % 0.0 in 0.0 W/m2 CLR
20:06 10.4 °F 4.1 °F 1020.2 in Calm     65 % 0.0 in 0.0 W/m2 CLR
20:11 10.3 °F 4.2 °F 1020.2 in Calm     66 % 0.0 in 0.0 W/m2 CLR
20:16 10.1 °F 4.1 °F 1020.2 in Calm     66 % 0.0 in 0.0 W/m2 CLR
20:21 10.0 °F 4.2 °F 1020.2 in Calm     67 % 0.0 in 0.0 W/m2 CLR
20:26 9.8 °F 4.0 °F 1020.2 in Calm     67 % 0.0 in 0.0 W/m2 CLR
20:31 9.7 °F 4.1 °F 1020.5 in Calm     68 % 0.0 in 0.0 W/m2 CLR
20:36 9.5 °F 4.1 °F 1020.5 in Calm     69 % 0.0 in 0.0 W/m2 CLR
20:41 9.4 °F 4.0 °F 1020.5 in Calm     69 % 0.0 in 0.0 W/m2 CLR
20:46 9.3 °F 4.1 °F 1020.5 in Calm     70 % 0.0 in 0.0 W/m2 CLR
20:51 9.2 °F 4.0 °F 1020.5 in Calm     70 % 0.0 in 0.0 W/m2 CLR
20:56 8.9 °F 3.8 °F 1020.5 in Calm     70 % 0.0 in 0.0 W/m2 CLR
21:01 8.6 °F 3.7 °F 1020.5 in Calm     71 % 0.0 in 0.0 W/m2 CLR
21:06 8.3 °F 3.7 °F 1020.9 in Calm     73 % 0.0 in 0.0 W/m2 CLR
21:11 8.1 °F 3.8 °F 1020.9 in Calm     74 % 0.0 in 0.0 W/m2 CLR
21:16 8.0 °F 3.7 °F 1020.9 in Calm     74 % 0.0 in 0.0 W/m2 CLR
21:21 7.8 °F 3.6 °F 1021.2 in Calm     75 % 0.0 in 0.0 W/m2 CLR
21:26 7.5 °F 3.3 °F 1021.2 in Calm     75 % 0.0 in 0.0 W/m2 CLR
21:31 7.2 °F 3.3 °F 1021.2 in Calm     76 % 0.0 in 0.0 W/m2 CLR
21:36 7.0 °F 3.2 °F 1021.2 in Calm     77 % 0.0 in 0.0 W/m2 CLR
21:41 6.8 °F 3.3 °F 1021.2 in Calm     78 % 0.0 in 0.0 W/m2 CLR
21:46 6.6 °F 3.2 °F 1021.6 in Calm     79 % 0.0 in 0.0 W/m2 CLR
21:51 6.4 °F 3.1 °F 1021.6 in Calm     79 % 0.0 in 0.0 W/m2 CLR
21:56 6.3 °F 3.1 °F 1021.6 in Calm     80 % 0.0 in 0.0 W/m2 CLR
22:01 6.1 °F 2.9 °F 1021.6 in Calm     80 % 0.0 in 0.0 W/m2 CLR
22:06 5.8 °F 2.7 °F 1021.6 in Calm     80 % 0.0 in 0.0 W/m2 CLR
22:11 5.7 °F 2.7 °F 1021.6 in Calm     81 % 0.0 in 0.0 W/m2 CLR
22:16 5.4 °F 2.6 °F 1021.6 in Calm     82 % 0.0 in 0.0 W/m2 CLR
22:21 5.3 °F 2.4 °F 1021.9 in Calm     82 % 0.0 in 0.0 W/m2 CLR
22:26 5.1 °F 2.2 °F 1021.9 in Calm     82 % 0.0 in 0.0 W/m2 CLR
22:31 4.9 °F 2.2 °F 1021.9 in Calm     83 % 0.0 in 0.0 W/m2 CLR
22:36 4.7 °F 2.1 °F 1021.9 in Calm     83 % 0.0 in 0.0 W/m2 CLR
22:41 4.6 °F 2.1 °F 1021.9 in Calm     84 % 0.0 in 0.0 W/m2 CLR
22:46 4.4 °F 2.0 °F 1021.9 in Calm     84 % 0.0 in 0.0 W/m2 CLR
22:51 4.3 °F 1.9 °F 1021.9 in Calm     84 % 0.0 in 0.0 W/m2 CLR
22:56 4.2 °F 1.9 °F 1021.9 in Calm     85 % 0.0 in 0.0 W/m2 CLR
23:01 4.1 °F 1.8 °F 1021.9 in Calm     85 % 0.0 in 0.0 W/m2 CLR
23:06 4.0 °F 1.9 °F 1021.9 in Calm     86 % 0.0 in 0.0 W/m2 CLR
23:11 3.9 °F 1.8 °F 1021.9 in Calm     86 % 0.0 in 0.0 W/m2 CLR
23:16 3.8 °F 1.7 °F 1021.9 in Calm     86 % 0.0 in 0.0 W/m2 CLR
23:21 3.7 °F 1.6 °F 1022.2 in Calm     86 % 0.0 in 0.0 W/m2 CLR
23:26 3.6 °F 1.5 °F 1022.2 in Calm     86 % 0.0 in 0.0 W/m2 CLR
23:31 3.5 °F 1.4 °F 1021.9 in Calm     86 % 0.0 in 0.0 W/m2 CLR
23:36 3.3 °F 1.4 °F 1022.2 in Calm     87 % 0.0 in 0.0 W/m2 CLR
23:41 3.2 °F 1.3 °F 1022.2 in Calm     87 % 0.0 in 0.0 W/m2 CLR
23:46 3.1 °F 1.3 °F 1022.2 in Calm     88 % 0.0 in 0.0 W/m2 CLR
23:51 3.1 °F 1.3 °F 1022.2 in Calm     88 % 0.0 in 0.0 W/m2 CLR
23:56 3.2 °F 1.4 °F 1022.2 in Calm     88 % 0.0 in 0.0 W/m2 CLR
Lo Temps de Massalio
Compliments of Weather Underground - 1.25 mb